Time;durP1;ratioP1;P1;durP2;ratioP2;P2;SDS_P1;SDS_P2;PMS_P1;PMS_P2;Temp;Humidity;BMP_temperature;BMP_pressure;BME280_temperature;BME280_humidity;BME280_pressure;Samples;Min_cycle;Max_cycle;Signal;HPM_P1;HPM_P2
2022/11/15 00:01:50;;;;;;;53.92;23.58;;;;;;;6.89;100.00;100815.03;5062712;28;20048;-75
2022/11/15 00:04:34;;;;;;;68.72;25.45;;;;;;;6.89;100.00;100817.69;5061794;28;20133;-75
2022/11/15 00:07:18;;;;;;;56.90;23.73;;;;;;;6.93;100.00;100819.28;5047558;28;20054;-75
2022/11/15 00:10:03;;;;;;;59.30;23.17;;;;;;;6.91;100.00;100806.06;5064694;28;20293;-74
2022/11/15 00:12:47;;;;;;;66.28;25.55;;;;;;;6.93;100.00;100808.66;5071709;28;20106;-75
2022/11/15 00:15:31;;;;;;;66.80;24.33;;;;;;;7.03;100.00;100799.31;5066153;28;20903;-75
2022/11/15 00:18:15;;;;;;;67.30;26.80;;;;;;;6.99;100.00;100803.06;5068289;28;20563;-74
2022/11/15 00:21:05;;;;;;;66.72;26.13;;;;;;;6.99;100.00;100795.09;5065398;28;20148;-75
2022/11/15 00:23:50;;;;;;;67.28;24.45;;;;;;;7.04;100.00;100801.03;5066308;28;20156;-74
2022/11/15 00:26:34;;;;;;;63.58;24.50;;;;;;;7.05;100.00;100792.13;5076253;28;20047;-75
2022/11/15 00:29:18;;;;;;;61.65;24.55;;;;;;;7.08;100.00;100792.00;5075266;28;20127;-75
2022/11/15 00:32:02;;;;;;;57.35;24.05;;;;;;;7.11;100.00;100783.03;5065080;28;20043;-74
2022/11/15 00:34:46;;;;;;;63.85;23.38;;;;;;;7.10;100.00;100778.66;5072111;28;20519;-74
2022/11/15 00:37:30;;;;;;;57.70;24.13;;;;;;;7.18;100.00;100782.66;5063316;28;20052;-75
2022/11/15 00:40:15;;;;;;;56.17;23.77;;;;;;;7.19;100.00;100764.94;5070473;28;20121;-75
2022/11/15 00:42:59;;;;;;;64.15;25.48;;;;;;;7.26;100.00;100776.94;5061041;28;20749;-74
2022/11/15 00:45:43;;;;;;;55.17;23.08;;;;;;;7.31;100.00;100776.72;5066742;28;20074;-77
2022/11/15 00:48:27;;;;;;;54.30;23.70;;;;;;;7.32;100.00;100778.41;5061334;28;20042;-75
2022/11/15 00:51:12;;;;;;;48.38;23.65;;;;;;;7.33;100.00;100781.03;5068548;28;20102;-75
2022/11/15 00:53:55;;;;;;;52.83;22.10;;;;;;;7.39;100.00;100779.84;5061881;28;20048;-75
2022/11/15 00:56:39;;;;;;;52.30;22.48;;;;;;;7.37;100.00;100771.94;5068570;28;20775;-76
2022/11/15 00:59:23;;;;;;;54.42;23.48;;;;;;;7.40;100.00;100773.59;5063540;28;20078;-74
2022/11/15 01:02:07;;;;;;;58.58;23.55;;;;;;;7.37;100.00;100768.44;5059032;28;20093;-74
2022/11/15 01:04:51;;;;;;;53.80;23.58;;;;;;;7.33;100.00;100765.09;5062342;28;20092;-75
2022/11/15 01:07:36;;;;;;;61.90;24.67;;;;;;;7.36;100.00;100764.94;5058020;28;20420;-74
2022/11/15 01:10:20;;;;;;;56.25;24.45;;;;;;;7.37;100.00;100758.69;5074481;28;20043;-74
2022/11/15 01:13:04;;;;;;;60.53;23.98;;;;;;;7.42;100.00;100753.13;5071017;28;20070;-75
2022/11/15 01:15:48;;;;;;;61.30;25.83;;;;;;;7.44;100.00;100746.84;5065649;28;20051;-74
2022/11/15 01:18:32;;;;;;;63.17;26.67;;;;;;;7.45;100.00;100748.53;5062761;28;20047;-74
2022/11/15 01:21:18;;;;;;;68.75;27.35;;;;;;;7.45;100.00;100747.69;5068927;28;20094;-75
2022/11/15 01:24:03;;;;;;;58.35;25.48;;;;;;;7.50;100.00;100751.81;5071704;28;20565;-75
2022/11/15 01:26:46;;;;;;;63.70;26.40;;;;;;;7.58;100.00;100750.53;5057573;28;20052;-75
2022/11/15 01:29:30;;;;;;;58.80;25.83;;;;;;;7.64;100.00;100736.97;5059957;28;20052;-75
2022/11/15 01:32:15;;;;;;;58.22;25.90;;;;;;;7.67;100.00;100739.44;5062570;28;20550;-75
2022/11/15 01:35:01;;;;;;;62.38;27.77;;;;;;;7.71;100.00;100733.03;5056624;28;20098;-75
2022/11/15 01:37:46;;;;;;;61.67;26.00;;;;;;;7.69;100.00;100732.28;5060917;28;20116;-75
2022/11/15 01:40:30;;;;;;;62.75;26.45;;;;;;;7.73;100.00;100728.50;5063493;28;20043;-75
2022/11/15 01:43:25;;;;;;;66.53;27.02;;;;;;;7.74;100.00;100723.13;5059653;28;20051;-74
2022/11/15 01:46:23;;;;;;;57.60;25.60;;;;;;;7.79;100.00;100722.88;5059838;28;20106;-75
2022/11/15 01:49:16;;;;;;;64.93;28.10;;;;;;;7.88;100.00;100726.81;5060103;28;20067;-75
2022/11/15 01:52:03;;;;;;;60.88;26.90;;;;;;;7.92;100.00;100715.09;5070724;28;20055;-75
2022/11/15 01:54:50;;;;;;;68.32;27.92;;;;;;;7.89;100.00;100716.13;5059477;28;20070;-75
2022/11/15 01:57:35;;;;;;;65.20;28.33;;;;;;;7.93;100.00;100712.38;5069577;28;20104;-75
2022/11/15 02:00:19;;;;;;;70.65;28.15;;;;;;;7.99;100.00;100705.88;5064998;28;20055;-75
2022/11/15 02:03:03;;;;;;;60.95;26.88;;;;;;;8.00;100.00;100715.56;5070192;28;20222;-75
2022/11/15 02:05:48;;;;;;;54.15;27.10;;;;;;;8.01;100.00;100712.81;5063040;28;20856;-75
2022/11/15 02:08:32;;;;;;;61.08;27.77;;;;;;;8.03;100.00;100713.59;5067598;28;20176;-75
2022/11/15 02:11:17;;;;;;;63.53;27.10;;;;;;;8.09;100.00;100704.44;5070703;28;20074;-74
2022/11/15 02:14:03;;;;;;;69.90;28.77;;;;;;;8.05;100.00;100710.84;5068474;28;20043;-74
2022/11/15 02:16:46;;;;;;;60.50;26.67;;;;;;;8.04;100.00;100709.13;5068191;28;20101;-75
2022/11/15 02:19:31;;;;;;;68.00;28.38;;;;;;;8.14;100.00;100704.19;5065360;28;20070;-75
2022/11/15 02:22:45;;;;;;;59.78;27.30;;;;;;;8.15;100.00;100704.09;5070865;28;20042;-75
2022/11/15 02:25:59;;;;;;;63.70;25.42;;;;;;;8.17;100.00;100698.69;5065524;28;20573;-74
2022/11/15 02:29:01;;;;;;;64.32;28.00;;;;;;;8.18;100.00;100693.31;5073906;28;20051;-74
2022/11/15 02:32:13;;;;;;;59.13;26.58;;;;;;;8.16;100.00;100699.63;5077272;28;20479;-75
2022/11/15 02:35:15;;;;;;;55.78;26.73;;;;;;;8.23;100.00;100696.56;5066888;28;20042;-75
2022/11/15 02:38:06;;;;;;;;;;;;;;;8.31;100.00;100694.31;5063323;28;20051;-75
2022/11/15 02:41:04;;;;;;;57.05;25.88;;;;;;;8.32;100.00;100684.53;5065815;28;19966;-75
2022/11/15 02:43:58;;;;;;;59.90;26.50;;;;;;;8.36;100.00;100679.91;5069208;28;20055;-76
2022/11/15 02:49:58;;;;;;;65.30;26.83;;;;;;;8.39;100.00;100680.63;5063139;28;20059;-75
2022/11/15 02:52:46;;;;;;;57.60;27.08;;;;;;;8.43;100.00;100681.28;5072192;28;20055;-75
2022/11/15 02:55:33;;;;;;;54.85;26.20;;;;;;;8.46;100.00;100679.34;5071409;28;20487;-75
2022/11/15 02:58:35;;;;;;;54.90;26.73;;;;;;;8.49;100.00;100671.19;5063692;28;20063;-75
2022/11/15 03:01:47;;;;;;;62.17;27.00;;;;;;;8.51;100.00;100669.28;5061131;28;20136;-75
2022/11/15 03:04:43;;;;;;;59.97;25.80;;;;;;;8.60;100.00;100664.41;5062906;28;20086;-74
2022/11/15 03:07:44;;;;;;;59.13;26.02;;;;;;;8.57;100.00;100663.63;5065877;28;20110;-76
2022/11/15 03:10:37;;;;;;;55.45;27.45;;;;;;;8.62;100.00;100660.69;5058872;28;20117;-75
2022/11/15 03:13:32;;;;;;;64.53;26.60;;;;;;;8.67;100.00;100658.63;5070656;28;20067;-75
2022/11/15 03:16:43;;;;;;;59.97;26.73;;;;;;;8.68;100.00;100651.50;5068312;28;20528;-75
2022/11/15 03:19:58;;;;;;;56.35;27.48;;;;;;;8.75;100.00;100659.03;5068199;28;20043;-75
2022/11/15 03:22:45;;;;;;;52.45;25.55;;;;;;;8.82;100.00;100647.09;5062831;28;20067;-75
2022/11/15 03:25:31;;;;;;;56.03;25.85;;;;;;;8.83;100.00;100639.97;5065468;28;20105;-75
2022/11/15 03:28:24;;;;;;;54.65;23.90;;;;;;;8.85;100.00;100643.41;5050944;28;20081;-75
2022/11/15 03:34:55;;;;;;;55.85;25.83;;;;;;;8.86;100.00;100645.09;5067957;28;20055;-75
2022/11/15 03:38:00;;;;;;;58.10;25.52;;;;;;;8.89;100.00;100642.28;5066655;28;20732;-74
2022/11/15 03:41:25;;;;;;;47.42;23.10;;;;;;;8.89;100.00;100642.28;5060074;28;20145;-74
2022/11/15 03:44:09;;;;;;;53.92;26.48;;;;;;;8.88;100.00;100642.34;5003581;28;20126;-75
2022/11/15 03:47:03;;;;;;;62.25;27.17;;;;;;;8.94;100.00;100647.31;5005928;28;20569;-75
2022/11/15 03:49:59;;;;;;;56.85;26.33;;;;;;;8.92;100.00;100652.72;5005391;28;20083;-75
2022/11/15 03:52:46;;;;;;;52.22;25.00;;;;;;;8.94;100.00;100650.00;5010320;28;20077;-74
2022/11/15 03:55:32;;;;;;;62.67;26.45;;;;;;;9.02;100.00;100648.56;5004913;28;20049;-74
2022/11/15 03:58:16;;;;;;;55.42;27.40;;;;;;;9.04;100.00;100654.66;4988136;28;20080;-75
2022/11/15 04:00:59;;;;;;;59.92;25.83;;;;;;;9.01;100.00;100656.63;5007897;28;20961;-74
2022/11/15 04:03:44;;;;;;;54.40;25.05;;;;;;;9.10;100.00;100658.75;5008046;28;21021;-74
2022/11/15 04:06:28;;;;;;;58.13;25.30;;;;;;;9.12;100.00;100656.00;4997513;28;20049;-75
2022/11/15 04:09:13;;;;;;;51.85;24.50;;;;;;;9.15;100.00;100651.34;5001638;28;20229;-74
2022/11/15 04:11:56;;;;;;;52.25;25.42;;;;;;;9.15;100.00;100664.66;4999271;28;20045;-74
2022/11/15 04:15:06;;;;;;;55.90;26.35;;;;;;;9.12;100.00;100662.16;4999425;28;20088;-74
2022/11/15 04:17:50;;;;;;;53.97;24.30;;;;;;;9.23;100.00;100664.16;5025581;28;20054;-75
2022/11/15 04:26:40;;;;;;;;;;;;;;;9.26;100.00;100664.84;5061430;28;20058;-75
2022/11/15 04:29:36;;;;;;;51.97;24.25;;;;;;;9.20;100.00;100659.06;5061434;28;19923;-74
2022/11/15 04:32:20;;;;;;;48.13;23.17;;;;;;;9.23;100.00;100658.84;5070715;28;20159;-75
2022/11/15 04:35:05;;;;;;;44.38;22.65;;;;;;;9.31;100.00;100656.59;5069605;28;20093;-75
2022/11/15 04:37:49;;;;;;;55.63;23.63;;;;;;;9.31;100.00;100651.25;5072229;28;20457;-75
2022/11/15 04:40:33;;;;;;;46.67;24.35;;;;;;;9.36;100.00;100646.53;5065470;28;20097;-75
2022/11/15 04:43:17;;;;;;;54.15;23.42;;;;;;;9.36;100.00;100651.84;5061838;28;20055;-75
2022/11/15 04:46:01;;;;;;;51.80;24.42;;;;;;;9.43;100.00;100652.31;5060062;28;20047;-74
2022/11/15 04:48:45;;;;;;;49.20;24.20;;;;;;;9.43;100.00;100652.31;5062899;28;20066;-75
2022/11/15 04:51:29;;;;;;;52.33;23.58;;;;;;;9.38;100.00;100652.59;5068804;28;20127;-74
2022/11/15 04:54:13;;;;;;;44.60;23.20;;;;;;;9.40;100.00;100652.50;5056013;28;20055;-75
2022/11/15 04:56:57;;;;;;;50.33;23.85;;;;;;;9.52;100.00;100646.41;5065569;28;20101;-75
2022/11/15 04:59:42;;;;;;;55.33;24.75;;;;;;;9.51;100.00;100650.03;5073136;28;20656;-75
2022/11/15 05:04:18;;;;;;;55.88;23.90;;;;;;;9.52;100.00;100647.28;5068585;28;20046;-75
2022/11/15 05:05:30;;;;;;;47.97;23.65;;;;;;;9.59;100.00;100651.28;5061697;28;20051;-75
2022/11/15 05:08:14;;;;;;;59.85;26.45;;;;;;;9.59;100.00;100647.78;5061827;28;20051;-74
2022/11/15 05:10:58;;;;;;;57.00;24.38;;;;;;;9.60;100.00;100649.47;5067364;28;20117;-75
2022/11/15 05:13:42;;;;;;;53.35;25.20;;;;;;;9.65;100.00;100646.53;5059130;28;20043;-74
2022/11/15 05:16:26;;;;;;;59.63;26.45;;;;;;;9.68;100.00;100636.53;5070111;28;20055;-75
2022/11/15 05:19:10;;;;;;;55.58;25.92;;;;;;;9.69;100.00;100637.38;5064743;28;20051;-74
2022/11/15 05:21:53;;;;;;;58.85;26.00;;;;;;;9.74;100.00;100637.94;5072483;28;20054;-75
2022/11/15 05:24:38;;;;;;;61.75;26.38;;;;;;;9.75;100.00;100640.53;5058688;28;20090;-75
2022/11/15 05:27:21;;;;;;;57.17;25.13;;;;;;;9.85;100.00;100640.78;5069411;28;20150;-74
2022/11/15 05:30:06;;;;;;;55.40;24.80;;;;;;;9.79;100.00;100642.03;5066992;28;20038;-74
2022/11/15 05:32:50;;;;;;;57.03;26.13;;;;;;;9.83;100.00;100635.53;5071733;28;20428;-75
2022/11/15 05:35:42;;;;;;;60.47;27.58;;;;;;;9.88;100.00;100635.25;5060256;28;20043;-74
2022/11/15 05:38:26;;;;;;;66.03;26.13;;;;;;;9.75;100.00;100632.53;5060140;28;20117;-75
2022/11/15 05:41:11;;;;;;;49.22;25.08;;;;;;;9.78;100.00;100632.31;5066872;28;20121;-75
2022/11/15 05:43:56;;;;;;;62.85;24.98;;;;;;;9.80;100.00;100637.56;5066496;28;20056;-75
2022/11/15 05:46:41;;;;;;;56.33;24.08;;;;;;;9.74;100.00;100636.16;5068363;28;20118;-75
2022/11/15 05:49:30;;;;;;;46.65;23.17;;;;;;;9.75;100.00;100645.84;5061477;28;20143;-75
2022/11/15 05:52:16;;;;;;;52.80;24.48;;;;;;;9.72;100.00;100643.38;5063503;28;20799;-74
2022/11/15 05:55:02;;;;;;;44.90;21.63;;;;;;;9.67;100.00;100644.59;5062588;28;20282;-76
2022/11/15 05:57:46;;;;;;;57.97;23.17;;;;;;;9.70;100.00;100634.63;5060448;28;20052;-75
2022/11/15 06:00:30;;;;;;;54.50;22.88;;;;;;;9.73;100.00;100638.91;5062387;28;20156;-75
2022/11/15 06:03:14;;;;;;;46.67;22.08;;;;;;;9.81;100.00;100647.25;5059344;28;20140;-75
2022/11/15 06:05:58;;;;;;;53.00;22.65;;;;;;;9.74;100.00;100645.91;5057228;28;20055;-76
2022/11/15 06:08:42;;;;;;;50.15;24.13;;;;;;;9.79;100.00;100647.38;5060229;28;20071;-73
2022/11/15 06:11:26;;;;;;;55.67;23.98;;;;;;;9.75;100.00;100647.66;5058270;28;20042;-74
2022/11/15 06:14:10;;;;;;;54.85;24.17;;;;;;;9.82;100.00;100647.16;5060630;28;20226;-74
2022/11/15 06:16:54;;;;;;;53.05;24.70;;;;;;;9.78;100.00;100644.78;5069909;28;20132;-74
2022/11/15 06:19:38;;;;;;;51.28;25.20;;;;;;;9.83;100.00;100640.03;5076830;28;20093;-74
2022/11/15 06:22:22;;;;;;;54.65;24.38;;;;;;;9.80;100.00;100646.41;5061131;28;20462;-73
2022/11/15 06:25:07;;;;;;;64.30;25.88;;;;;;;9.85;100.00;100651.44;5067518;28;20476;-75
2022/11/15 06:27:52;;;;;;;51.30;24.48;;;;;;;9.82;100.00;100648.97;5071212;28;20519;-73
2022/11/15 06:30:36;;;;;;;46.63;22.75;;;;;;;9.85;100.00;100654.97;5063533;28;20207;-74
2022/11/15 06:33:21;;;;;;;52.03;23.70;;;;;;;9.88;100.00;100663.69;5065248;28;20059;-74
2022/11/15 06:36:08;;;;;;;71.13;25.80;;;;;;;9.85;100.00;100657.63;5063033;28;20047;-74
2022/11/15 06:38:52;;;;;;;54.33;25.48;;;;;;;9.88;100.00;100655.72;5061436;28;20118;-73
2022/11/15 06:41:36;;;;;;;51.65;24.95;;;;;;;9.91;100.00;100648.38;5062929;28;20125;-74
2022/11/15 06:44:20;;;;;;;54.70;24.67;;;;;;;9.87;100.00;100652.19;5072912;28;20051;-73
2022/11/15 06:47:03;;;;;;;62.60;26.00;;;;;;;9.96;100.00;100656.09;5069525;28;20068;-73
2022/11/15 06:49:47;;;;;;;49.67;23.85;;;;;;;9.88;100.00;100661.03;5063119;28;20171;-74
2022/11/15 06:52:32;;;;;;;51.72;24.70;;;;;;;9.91;100.00;100669.69;5059079;28;20043;-74
2022/11/15 06:55:16;;;;;;;54.70;23.67;;;;;;;9.94;100.00;100671.28;5070650;28;20192;-74
2022/11/15 06:58:00;;;;;;;52.33;24.23;;;;;;;9.93;100.00;100664.25;5063643;28;20143;-73
2022/11/15 07:00:44;;;;;;;52.10;25.40;;;;;;;9.98;100.00;100673.66;5048731;28;20055;-74
2022/11/15 07:03:28;;;;;;;62.10;24.08;;;;;;;10.08;100.00;100671.28;5064265;28;20055;-74
2022/11/15 07:06:12;;;;;;;59.40;25.10;;;;;;;9.99;100.00;100667.41;5066968;28;20043;-73
2022/11/15 07:08:56;;;;;;;56.95;25.45;;;;;;;9.97;100.00;100660.47;5066795;28;20051;-74
2022/11/15 07:11:41;;;;;;;63.00;25.95;;;;;;;9.91;100.00;100661.72;5066570;28;20047;-73
2022/11/15 07:14:24;;;;;;;59.97;25.38;;;;;;;9.90;100.00;100667.16;5061621;28;21065;-74
2022/11/15 07:17:08;;;;;;;55.90;25.00;;;;;;;9.90;100.00;100673.31;5064916;28;20054;-74
2022/11/15 07:19:52;;;;;;;61.10;26.85;;;;;;;9.92;100.00;100674.06;5068230;28;20582;-73
2022/11/15 07:22:36;;;;;;;63.83;28.00;;;;;;;9.91;100.00;100672.34;5062619;28;20070;-74
2022/11/15 07:25:20;;;;;;;56.47;26.15;;;;;;;10.02;100.00;100677.00;5069107;28;20086;-75
2022/11/15 07:28:04;;;;;;;58.55;25.65;;;;;;;10.00;100.00;100684.25;5056808;28;20043;-74
2022/11/15 07:30:48;;;;;;;57.67;25.27;;;;;;;9.99;100.00;100683.41;5064016;28;20051;-75
2022/11/15 07:33:32;;;;;;;58.97;25.90;;;;;;;10.03;100.00;100689.38;5074519;28;20052;-74
2022/11/15 07:36:17;;;;;;;62.13;24.80;;;;;;;9.96;100.00;100704.88;5063660;28;20093;-74
2022/11/15 07:39:01;;;;;;;80.80;28.30;;;;;;;10.02;100.00;100704.50;5074209;28;20567;-74
2022/11/15 07:41:46;;;;;;;63.47;28.75;;;;;;;10.05;100.00;100698.13;5075055;28;20118;-74
2022/11/15 07:44:30;;;;;;;68.82;28.08;;;;;;;10.07;100.00;100698.88;5061230;28;20235;-74
2022/11/15 07:47:14;;;;;;;63.95;27.65;;;;;;;10.10;100.00;100696.88;5071208;28;20159;-75
2022/11/15 07:49:58;;;;;;;66.35;28.92;;;;;;;10.19;100.00;100703.44;5061278;28;20524;-75
2022/11/15 07:52:42;;;;;;;80.38;30.70;;;;;;;10.13;100.00;100694.00;5066364;28;20101;-74
2022/11/15 07:55:29;;;;;;;70.70;29.13;;;;;;;10.12;100.00;100697.63;5063456;28;20051;-75
2022/11/15 07:58:13;;;;;;;59.25;27.13;;;;;;;10.18;100.00;100699.03;5068948;28;20043;-74
2022/11/15 08:00:57;;;;;;;69.97;29.25;;;;;;;10.22;100.00;100703.22;5052786;28;20099;-74
2022/11/15 08:03:40;;;;;;;64.60;26.23;;;;;;;10.24;100.00;100696.03;5065554;28;20055;-74
2022/11/15 08:06:24;;;;;;;59.20;25.52;;;;;;;10.28;100.00;100697.53;5060284;28;20051;-74
2022/11/15 08:09:09;;;;;;;61.20;25.10;;;;;;;10.27;100.00;100698.50;5059634;28;20127;-74
2022/11/15 08:11:53;;;;;;;71.57;25.85;;;;;;;10.23;100.00;100704.06;5075852;28;20117;-74
2022/11/15 08:14:37;;;;;;;60.17;23.80;;;;;;;10.29;100.00;100699.25;5061956;28;20056;-74
2022/11/15 08:17:21;;;;;;;59.88;24.58;;;;;;;10.30;100.00;100695.63;5060812;28;20087;-74
2022/11/15 08:20:06;;;;;;;54.15;23.98;;;;;;;10.32;100.00;100703.53;5058116;28;20101;-74
2022/11/15 08:22:50;;;;;;;67.10;25.02;;;;;;;10.30;100.00;100695.63;5064171;28;20055;-73
2022/11/15 08:25:35;;;;;;;60.13;23.05;;;;;;;10.28;100.00;100699.34;5062742;28;20050;-73
2022/11/15 08:28:19;;;;;;;46.70;21.15;;;;;;;10.27;100.00;100693.16;5063304;28;20074;-74
2022/11/15 08:31:04;;;;;;;58.78;22.77;;;;;;;10.35;100.00;100696.19;5058891;28;20059;-74
2022/11/15 08:33:48;;;;;;;65.30;23.90;;;;;;;10.41;100.00;100692.28;5073219;28;20471;-74
2022/11/15 08:36:32;;;;;;;49.88;21.02;;;;;;;10.44;100.00;100691.19;5062871;28;20079;-74
2022/11/15 08:39:16;;;;;;;43.67;18.00;;;;;;;10.45;100.00;100688.47;5066704;28;20051;-74
2022/11/15 08:42:00;;;;;;;40.75;18.00;;;;;;;10.47;100.00;100689.19;5069980;28;20058;-74
2022/11/15 08:44:44;;;;;;;32.05;15.15;;;;;;;10.55;100.00;100689.56;5072012;28;20113;-75
2022/11/15 08:47:28;;;;;;;37.88;16.92;;;;;;;10.65;100.00;100686.28;5059811;28;20063;-73
2022/11/15 08:50:12;;;;;;;28.30;14.80;;;;;;;10.78;100.00;100685.34;5060037;28;20094;-74
2022/11/15 08:52:56;;;;;;;33.63;14.35;;;;;;;10.79;100.00;100684.44;5073858;28;20051;-74
2022/11/15 08:55:40;;;;;;;25.80;12.45;;;;;;;11.03;100.00;100681.91;5065756;28;20105;-74
2022/11/15 08:58:24;;;;;;;28.77;12.35;;;;;;;11.01;100.00;100685.63;5061424;28;20067;-74
2022/11/15 09:01:16;;;;;;;23.33;12.10;;;;;;;11.06;100.00;100684.38;5065804;28;20074;-74
2022/11/15 09:04:00;;;;;;;23.10;10.55;;;;;;;11.11;100.00;100692.91;5061101;28;20653;-74
2022/11/15 09:06:44;;;;;;;21.38;10.10;;;;;;;11.27;100.00;100689.19;5061639;28;20210;-77
2022/11/15 09:09:28;;;;;;;24.10;10.20;;;;;;;11.28;100.00;100681.06;5064089;28;20094;-74
2022/11/15 09:12:12;;;;;;;20.42;9.80;;;;;;;11.27;100.00;100687.38;5060077;28;20050;-73
2022/11/15 09:14:56;;;;;;;22.20;10.52;;;;;;;11.24;100.00;100684.91;5055419;28;20044;-74
2022/11/15 09:17:40;;;;;;;20.98;10.85;;;;;;;11.16;100.00;100684.59;5056860;28;20106;-74
2022/11/15 09:20:24;;;;;;;18.83;10.52;;;;;;;11.18;100.00;100690.66;5073255;28;20079;-74
2022/11/15 09:23:08;;;;;;;21.48;11.07;;;;;;;11.17;100.00;100680.09;5071437;28;20139;-74
2022/11/15 09:25:57;;;;;;;22.60;11.18;;;;;;;11.14;100.00;100681.16;5064846;28;20043;-74
2022/11/15 09:28:41;;;;;;;26.35;11.82;;;;;;;11.05;100.00;100687.16;5062866;28;20695;-74
2022/11/15 09:31:26;;;;;;;25.00;12.35;;;;;;;11.10;100.00;100674.34;5060776;28;20048;-73
2022/11/15 09:34:11;;;;;;;27.38;12.10;;;;;;;11.40;100.00;100674.91;5052020;28;20043;-74
2022/11/15 09:36:55;;;;;;;23.25;11.80;;;;;;;11.27;100.00;100670.50;5060719;28;20070;-73
2022/11/15 09:39:39;;;;;;;19.55;11.82;;;;;;;11.34;100.00;100671.78;5065404;28;20051;-74
2022/11/15 09:42:28;;;;;;;21.15;12.32;;;;;;;11.26;100.00;100668.81;5068612;28;20074;-74
2022/11/15 09:45:20;;;;;;;25.50;13.20;;;;;;;11.42;100.00;100658.75;5056427;28;20055;-75
2022/11/15 09:48:10;;;;;;;20.60;11.80;;;;;;;11.36;100.00;100665.38;5060318;28;20059;-73
2022/11/15 09:51:03;;;;;;;17.15;10.70;;;;;;;11.46;100.00;100654.91;5087430;28;20040;-74
2022/11/15 09:53:42;;;;;;;17.63;10.60;;;;;;;11.40;100.00;100644.69;5052595;28;20052;-73
2022/11/15 09:56:18;;;;;;;19.08;10.43;;;;;;;11.58;100.00;100650.53;5067151;28;20044;-74
2022/11/15 09:59:02;;;;;;;17.02;9.63;;;;;;;11.45;100.00;100647.88;5071291;28;20490;-73
2022/11/15 10:01:36;;;;;;;18.55;9.45;;;;;;;11.38;100.00;100639.44;5056581;28;20032;-73
2022/11/15 10:04:01;;;;;;;16.95;8.95;;;;;;;11.43;100.00;100639.09;5077106;28;20097;-74
2022/11/15 10:06:27;;;;;;;19.50;8.88;;;;;;;11.56;100.00;100636.44;5066839;28;20824;-74
2022/11/15 10:09:13;;;;;;;17.55;8.95;;;;;;;11.67;100.00;100639.19;5072500;28;20040;-74
2022/11/15 10:11:40;;;;;;;16.92;9.55;;;;;;;11.78;100.00;100623.25;5052895;28;20054;-73
2022/11/15 10:14:11;;;;;;;17.27;9.50;;;;;;;11.72;100.00;100626.38;5073499;28;20093;-75
2022/11/15 10:16:42;;;;;;;23.02;9.50;;;;;;;11.75;100.00;100623.47;5070276;28;20032;-74
2022/11/15 10:19:29;;;;;;;16.40;7.50;;;;;;;11.85;100.00;100619.22;5065080;28;20110;-74
2022/11/15 10:22:38;;;;;;;12.50;8.07;;;;;;;11.74;100.00;100621.75;5065357;28;20042;-74
2022/11/15 10:25:14;;;;;;;11.55;6.93;;;;;;;11.81;100.00;100622.19;5069840;28;20043;-74
2022/11/15 10:27:42;;;;;;;13.70;6.97;;;;;;;11.91;100.00;100615.25;5069688;28;20033;-74
2022/11/15 10:30:14;;;;;;;12.48;6.70;;;;;;;11.89;100.00;100606.47;5072229;28;20481;-74
2022/11/15 10:32:41;;;;;;;10.05;6.15;;;;;;;11.83;100.00;100609.59;5069485;28;20040;-74
2022/11/15 10:35:36;;;;;;;8.63;6.47;;;;;;;11.77;100.00;100610.84;5066336;28;20044;-74
2022/11/15 10:38:07;;;;;;;12.80;6.35;;;;;;;11.78;100.00;100611.72;5073575;28;20040;-74
2022/11/15 10:40:33;;;;;;;13.85;6.15;;;;;;;11.81;100.00;100612.34;5072345;28;20081;-73
2022/11/15 10:43:16;;;;;;;7.40;4.63;;;;;;;11.78;100.00;100612.56;5068165;28;20117;-75
2022/11/15 10:45:42;;;;;;;8.05;4.80;;;;;;;12.01;100.00;100610.09;5058214;28;20048;-75
2022/11/15 10:48:14;;;;;;;6.55;4.78;;;;;;;11.99;100.00;100612.84;5063833;28;20031;-74
2022/11/15 10:50:44;;;;;;;8.70;4.32;;;;;;;11.96;100.00;100609.56;5059346;28;20037;-74
2022/11/15 10:53:47;;;;;;;7.25;4.50;;;;;;;11.89;100.00;100601.13;5065792;28;20032;-74
2022/11/15 10:56:15;;;;;;;7.28;3.78;;;;;;;12.04;100.00;100593.81;5068130;28;20838;-74
2022/11/15 10:58:57;;;;;;;6.40;3.30;;;;;;;11.97;100.00;100590.75;5067492;28;20049;-74
2022/11/15 11:01:29;;;;;;;7.80;4.43;;;;;;;11.98;100.00;100580.91;5066724;28;20086;-74
2022/11/15 11:04:12;;;;;;;5.03;3.40;;;;;;;11.97;100.00;100574.72;5066916;28;20047;-74
2022/11/15 11:06:53;;;;;;;2.92;2.50;;;;;;;11.88;100.00;100560.19;5030457;28;20090;-75
2022/11/15 11:09:35;;;;;;;5.25;2.85;;;;;;;11.98;100.00;100548.84;5074611;28;20139;-74
2022/11/15 11:12:02;;;;;;;6.00;2.75;;;;;;;12.05;100.00;100552.75;5053142;28;20048;-73
2022/11/15 11:14:35;;;;;;;5.10;2.72;;;;;;;12.01;100.00;100561.97;5062785;28;20037;-74
2022/11/15 11:17:39;;;;;;;4.07;2.83;;;;;;;12.05;100.00;100560.75;5065709;28;20036;-75
2022/11/15 11:20:18;;;;;;;9.30;3.05;;;;;;;11.95;100.00;100557.94;5065382;28;20120;-74
2022/11/15 11:23:12;;;;;;;5.68;2.70;;;;;;;11.88;100.00;100559.34;5077407;28;20037;-74
2022/11/15 11:26:03;;;;;;;4.57;2.47;;;;;;;11.95;100.00;100559.75;5062774;28;20032;-74
2022/11/15 11:28:56;;;;;;;7.28;2.88;;;;;;;12.08;100.00;100550.72;5066076;28;20052;-73
2022/11/15 11:31:47;;;;;;;4.78;2.63;;;;;;;12.05;100.00;100555.41;5066711;28;20474;-74
2022/11/15 11:34:13;;;;;;;4.25;2.42;;;;;;;12.16;100.00;100548.31;5068638;28;20056;-74
2022/11/15 11:36:50;;;;;;;5.40;2.47;;;;;;;12.17;100.00;100541.16;5061711;28;20048;-74
2022/11/15 11:39:38;;;;;;;3.47;2.00;;;;;;;12.19;100.00;100540.06;5061796;28;20048;-74
2022/11/15 11:42:16;;;;;;;3.83;1.88;;;;;;;12.32;100.00;100542.69;5063664;28;20033;-74
2022/11/15 11:45:05;;;;;;;4.60;2.22;;;;;;;12.35;100.00;100550.47;5066490;28;20066;-75
2022/11/15 11:47:36;;;;;;;5.30;1.70;;;;;;;12.29;100.00;100550.06;5058592;28;20051;-74
2022/11/15 11:50:15;;;;;;;3.03;1.42;;;;;;;11.98;100.00;100533.66;5067006;28;20865;-74
2022/11/15 11:52:55;;;;;;;3.83;1.20;;;;;;;11.95;100.00;100541.91;5067364;28;20527;-75
2022/11/15 11:55:42;;;;;;;7.25;1.40;;;;;;;11.93;100.00;100547.34;5061783;28;20050;-74
2022/11/15 11:58:16;;;;;;;2.35;1.15;;;;;;;11.96;100.00;100535.59;5069232;28;20115;-74
2022/11/15 12:00:53;;;;;;;1.88;1.20;;;;;;;12.03;100.00;100542.19;5068543;28;20058;-74
2022/11/15 12:03:45;;;;;;;4.93;1.58;;;;;;;12.05;100.00;100545.63;5071472;28;20087;-74
2022/11/15 12:06:40;;;;;;;3.05;1.33;;;;;;;11.93;100.00;100533.16;5059643;28;20565;-74
2022/11/15 12:09:37;;;;;;;11.50;1.52;;;;;;;11.91;100.00;100532.41;5066939;28;20062;-74
2022/11/15 12:12:24;;;;;;;2.58;1.88;;;;;;;11.81;100.00;100520.66;5067195;28;20039;-73
2022/11/15 12:15:25;;;;;;;5.95;1.55;;;;;;;11.95;100.00;100528.56;5041022;28;20107;-74
2022/11/15 12:17:51;;;;;;;8.40;1.58;;;;;;;11.85;100.00;100512.34;5053659;28;20048;-74
2022/11/15 12:20:20;;;;;;;1.95;1.30;;;;;;;11.92;100.00;100510.06;5069500;28;20896;-74
2022/11/15 12:23:07;;;;;;;3.60;1.25;;;;;;;12.00;100.00;100498.78;5061696;28;20036;-74
2022/11/15 12:25:50;;;;;;;4.35;1.10;;;;;;;12.08;100.00;100488.38;5068808;28;20036;-74
2022/11/15 12:28:27;;;;;;;3.80;1.20;;;;;;;12.07;100.00;100487.53;5056058;28;20036;-74
2022/11/15 12:31:05;;;;;;;5.60;1.27;;;;;;;12.22;100.00;100479.34;5065780;28;20119;-74
2022/11/15 12:33:34;;;;;;;4.68;1.45;;;;;;;12.05;99.64;100477.91;5045800;28;20045;-74
2022/11/15 12:36:03;;;;;;;4.03;1.40;;;;;;;12.06;100.00;100468.97;5062096;28;20037;-73
2022/11/15 12:39:00;;;;;;;2.45;1.08;;;;;;;12.03;96.85;100463.84;5041154;28;20060;-73
2022/11/15 12:41:30;;;;;;;4.57;1.02;;;;;;;12.01;92.78;100455.09;5062252;28;20063;-74
2022/11/15 12:43:58;;;;;;;2.33;1.02;;;;;;;12.04;94.33;100462.84;5065201;28;20044;-74